This is the latest recevied weather packets stored in our database for station/object W7BL. If no packets are shown the sender has not sent any weather packets the latest 10 day(s).
| Time | Temp. | Humidity | Pressure | Rain* | Wind** | Luminosity | Snow |
|---|---|---|---|---|---|---|---|
| 1777568819 | 13.33° C | 53% | - | 0 mm | - | - | - |
| 1777568517 | 13.33° C | 52% | - | 0 mm | - | - | - |
| 1777568213 | 12.78° C | 55% | - | 0 mm | - | - | - |
| 1777567910 | 13.33° C | 54% | - | 0 mm | - | - | - |
| 1777567606 | 12.78° C | 54% | - | 0 mm | - | - | - |
| 1777567303 | 12.78° C | 54% | - | 0 mm | - | - | - |
| 1777567002 | 11.67° C | 56% | - | 0 mm | - | - | - |
| 1777566699 | 12.78° C | 54% | - | 0 mm | - | - | - |
| 1777566397 | 12.78° C | 54% | - | 0 mm | - | - | - |
| 1777566094 | 12.22° C | 58% | - | 0 mm | - | - | - |
| 1777565789 | 11.67° C | 57% | - | 0 mm | - | - | - |
| 1777565486 | 11.67° C | 57% | - | 0 mm | - | - | - |
| 1777565182 | 11.67° C | 58% | - | 0 mm | - | - | - |
| 1777564879 | 11.11° C | 58% | - | 0 mm | - | - | - |
| 1777564579 | 11.11° C | 59% | - | 0 mm | - | - | - |
| 1777564275 | 10.56° C | 59% | - | 0 mm | - | - | - |
| 1777563971 | 10.56° C | 61% | - | 0 mm | - | - | - |
| 1777563668 | 11.11° C | 59% | - | 0 mm | - | - | - |
| 1777563362 | 11.11° C | 60% | - | 0 mm | - | - | - |
| 1777563058 | 10.56° C | 61% | - | 0 mm | - | - | - |
| 1777562754 | 10° C | 63% | - | 0 mm | - | - | - |
| 1777562453 | 9.44° C | 64% | - | 0 mm | - | - | - |
| 1777562150 | 9.44° C | 65% | - | 0 mm | - | - | - |
| 1777561847 | 8.89° C | 66% | - | 0 mm | - | - | - |
| 1777561544 | 8.89° C | 66% | - | 0 mm | - | - | - |
* Rain latest hour (hover to see other rain measurements)
** Current wind speed in m/s (hover to see current wind gust speed)